Time;durP1;ratioP1;P1;durP2;ratioP2;P2;SDS_P1;SDS_P2;PMS_P1;PMS_P2;Temp;Humidity;BMP_temperature;BMP_pressure;BME280_temperature;BME280_humidity;BME280_pressure;Samples;Min_cycle;Max_cycle;Signal;HPM_P1;HPM_P2
2022/07/03 01:01:16;;;;;;;14.02;7.57;;;;;;;18.54;74.44;99619.44;6265374;22;20388;-94
2022/07/03 01:07:55;;;;;;;17.80;7.88;;;;;;;18.43;74.75;99626.69;6279606;22;20065;-96
2022/07/03 01:10:42;;;;;;;19.85;8.35;;;;;;;18.08;75.46;99583.94;6200307;22;20016;-94
2022/07/03 01:13:31;;;;;;;18.10;8.50;;;;;;;18.29;76.19;99597.50;6199745;22;20015;-93
2022/07/03 01:17:05;;;;;;;21.15;8.57;;;;;;;18.42;76.86;99616.78;6234841;22;20058;-93
2022/07/03 01:22:19;;;;;;;26.50;9.27;;;;;;;18.30;77.39;99592.75;6216347;23;20028;-92
2022/07/03 01:25:55;;;;;;;22.73;9.18;;;;;;;18.40;77.13;99597.75;6173852;23;20055;-93
2022/07/03 01:29:54;;;;;;;27.80;9.50;;;;;;;18.42;77.24;99609.28;6127752;23;20412;-92
2022/07/03 01:32:30;;;;;;;23.52;9.80;;;;;;;18.40;77.29;99610.78;6105515;23;20065;-93
2022/07/03 01:35:02;;;;;;;25.65;9.73;;;;;;;17.76;76.16;99524.19;6107540;23;20356;-93
2022/07/03 01:38:12;;;;;;;;;;;;;;;;;;;;;
2022/07/03 01:41:50;;;;;;;;;;;;;;;;;;;;;
2022/07/03 01:45:36;;;;;;;22.05;9.57;;;;;;;18.40;75.67;99619.09;6185850;23;20490;-93
2022/07/03 01:52:26;;;;;;;;;;;;;;;;;;;;;
2022/07/03 01:59:32;;;;;;;35.78;11.93;;;;;;;18.10;76.20;99566.16;6212976;23;20074;-92
2022/07/03 02:17:17;;;;;;;31.75;12.75;;;;;;;18.53;75.32;99609.53;6238777;22;20046;-90
2022/07/03 02:20:09;;;;;;;34.33;11.93;;;;;;;18.58;74.57;99609.25;6203449;22;20016;31
2022/07/03 02:22:39;;;;;;;34.75;13.70;;;;;;;18.02;74.83;99516.19;6188607;23;20029;-92
2022/07/03 02:29:04;;;;;;;37.50;13.55;;;;;;;18.24;74.56;99516.69;6192714;23;20019;-94
2022/07/03 02:32:35;;;;;;;27.55;12.98;;;;;;;18.86;74.07;99602.78;6217481;23;20083;-95
2022/07/03 02:36:07;;;;;;;28.77;11.80;;;;;;;18.94;69.99;99605.38;6197786;23;20074;-94
2022/07/03 03:12:41;;;;;;;30.23;12.40;;;;;;;20.00;64.15;99584.88;6265827;22;20035;-93
2022/07/03 03:16:08;;;;;;;;;;;;;;;;;;;;;
2022/07/03 04:10:33;;;;;;;37.33;15.15;;;;;;;21.57;56.25;99556.59;6249939;22;20024;-93
2022/07/03 04:19:58;;;;;;;45.20;16.13;;;;;;;21.32;56.38;99490.38;6110199;23;20101;-92
2022/07/03 04:30:01;;;;;;;;;;;;;;;;;;;;;
2022/07/03 04:33:56;;;;;;;41.70;16.98;;;;;;;21.62;55.91;99486.69;6221874;23;20043;-92
2022/07/03 04:42:57;;;;;;;34.22;16.25;;;;;;;22.18;54.96;99551.63;6236367;22;20028;-92
2022/07/03 04:45:48;;;;;;;;;;;;;;;;;;;;;
2022/07/03 05:21:17;;;;;;;40.67;17.73;;;;;;;22.94;53.95;99531.44;6221669;22;20015;-91
2022/07/03 05:24:45;;;;;;;45.47;17.52;;;;;;;23.31;52.77;99566.66;6197074;22;20023;-87
2022/07/03 05:27:11;;;;;;;84.93;23.42;;;;;;;23.11;55.04;99521.56;6222252;22;20018;-90
2022/07/03 05:29:38;;;;;;;70.18;20.00;;;;;;;23.39;54.55;99543.97;6221713;22;20358;-89
2022/07/03 05:32:08;;;;;;;58.42;21.10;;;;;;;23.25;52.56;99518.84;6198618;22;20629;-86
2022/07/03 05:34:34;;;;;;;55.10;20.27;;;;;;;23.30;52.84;99518.44;6249247;22;20051;-87
2022/07/03 05:37:13;;;;;;;71.47;21.77;;;;;;;23.25;53.44;99493.72;6275148;22;20019;-86
2022/07/03 05:39:43;;;;;;;95.22;22.65;;;;;;;23.51;53.15;99526.09;6247834;22;20145;-87
2022/07/03 05:42:11;;;;;;;100.93;22.30;;;;;;;23.45;52.07;99517.28;6275363;22;20022;-88
2022/07/03 05:44:49;;;;;;;130.32;25.85;;;;;;;23.57;52.61;99529.25;6249259;22;20023;-86
2022/07/03 05:47:15;;;;;;;62.58;21.42;;;;;;;23.57;52.09;99526.47;6276742;22;20054;-88
2022/07/03 05:49:41;;;;;;;87.47;28.55;;;;;;;23.57;53.60;99506.94;6223577;22;20101;-85
2022/07/03 05:52:10;;;;;;;90.65;23.15;;;;;;;23.60;52.06;99497.78;6248385;22;20404;-85
2022/07/03 05:54:36;;;;;;;109.57;27.23;;;;;;;23.80;53.37;99520.56;6252915;22;20027;-86
2022/07/03 05:57:03;;;;;;;78.45;23.83;;;;;;;23.81;52.81;99511.81;6213280;23;20020;-86
2022/07/03 06:02:15;;;;;;;100.25;24.33;;;;;;;23.85;52.02;99498.63;6213257;23;20023;-86
2022/07/03 06:04:57;;;;;;;65.65;21.20;;;;;;;23.93;51.24;99502.22;6211475;23;20425;-91
2022/07/03 06:07:23;;;;;;;76.65;22.15;;;;;;;24.39;51.51;99549.69;6213963;23;20099;-84
2022/07/03 06:09:49;;;;;;;76.28;24.00;;;;;;;24.38;51.18;99533.31;6214197;23;20016;-85
2022/07/03 06:12:15;;;;;;;148.73;27.55;;;;;;;24.38;51.20;99519.34;6213551;23;20016;-86
2022/07/03 06:14:41;;;;;;;144.52;27.38;;;;;;;24.59;51.24;99552.88;6187192;23;20155;-89
2022/07/03 06:17:07;;;;;;;76.95;22.13;;;;;;;24.64;50.55;99551.69;6162740;23;20023;-85
2022/07/03 06:19:33;;;;;;;75.18;21.95;;;;;;;24.74;50.70;99547.28;6212920;23;20021;-88
2022/07/03 06:21:59;;;;;;;91.60;23.02;;;;;;;24.79;50.53;99549.63;6163928;23;20020;-86
2022/07/03 06:24:26;;;;;;;134.68;25.98;;;;;;;24.88;51.27;99552.81;6164893;23;20020;-85
2022/07/03 06:26:55;;;;;;;60.67;21.23;;;;;;;24.73;49.50;99521.28;6108761;23;20017;-85
2022/07/03 06:29:27;;;;;;;114.82;25.83;;;;;;;24.97;50.02;99549.59;6130779;23;20017;-90
2022/07/03 06:32:58;;;;;;;75.15;22.17;;;;;;;25.01;50.52;99548.38;6129661;23;20057;-92
2022/07/03 06:35:49;;;;;;;62.30;21.70;;;;;;;25.01;48.83;99548.38;6153300;23;20021;-94
2022/07/03 06:38:33;;;;;;;92.80;28.20;;;;;;;24.97;48.64;99525.22;6154037;23;20351;-94
2022/07/03 06:40:59;;;;;;;58.15;22.23;;;;;;;24.70;48.85;99482.16;6150925;23;20025;-88
2022/07/03 06:43:25;;;;;;;73.53;22.08;;;;;;;24.84;47.60;99512.88;6150909;23;20508;-90
2022/07/03 06:50:29;;;;;;;75.00;21.85;;;;;;;25.21;47.88;99556.31;6130015;23;20087;-88
2022/07/03 06:52:58;;;;;;;58.10;22.35;;;;;;;24.98;48.13;99515.63;6153495;23;20016;-89
2022/07/03 06:55:25;;;;;;;103.22;26.73;;;;;;;25.19;48.99;99525.94;6130998;22;20473;-88
2022/07/03 06:57:51;;;;;;;105.32;24.73;;;;;;;25.27;48.44;99526.72;6219479;23;20027;-89
2022/07/03 07:03:05;;;;;;;72.50;23.70;;;;;;;25.20;46.38;99532.34;6222698;23;20523;-90
2022/07/03 07:09:00;;;;;;;67.70;22.23;;;;;;;25.40;46.70;99539.03;6250122;23;20068;-89
2022/07/03 07:11:41;;;;;;;;;;;;;;;25.68;47.51;99563.28;6226808;23;20103;-90
2022/07/03 07:14:13;;;;;;;81.50;25.60;;;;;;;25.38;46.65;99505.06;6231493;23;19939;-90
2022/07/03 07:16:39;;;;;;;65.47;22.05;;;;;;;25.79;46.94;99557.59;6198499;23;20024;-89
2022/07/03 07:19:06;;;;;;;78.18;26.75;;;;;;;25.94;46.59;99559.13;6171538;23;20023;-90
2022/07/03 07:21:32;;;;;;;55.28;20.58;;;;;;;25.86;45.22;99549.19;6169638;23;20024;-91
2022/07/03 07:23:58;;;;;;;56.35;19.85;;;;;;;25.90;44.12;99544.34;6169783;23;20029;-90
2022/07/03 07:26:24;;;;;;;147.63;28.88;;;;;;;25.91;45.36;99540.34;6194446;23;20019;-89
2022/07/03 07:29:03;;;;;;;127.60;26.13;;;;;;;25.91;45.44;99523.53;6194554;23;20020;-89
2022/07/03 07:31:29;;;;;;;105.35;32.17;;;;;;;26.29;45.51;99556.44;6169720;23;20016;-90
2022/07/03 07:33:55;;;;;;;78.53;21.85;;;;;;;26.32;44.58;99556.41;6168674;23;20016;-90
2022/07/03 07:36:21;;;;;;;99.65;21.35;;;;;;;26.24;42.64;99555.69;6169635;23;20048;-89
2022/07/03 07:38:47;;;;;;;135.00;25.77;;;;;;;26.27;43.00;99558.88;6195628;23;20358;-89
2022/07/03 07:41:13;;;;;;;103.05;22.60;;;;;;;26.23;43.02;99553.31;6195736;23;20016;-90
2022/07/03 07:43:39;;;;;;;75.00;22.27;;;;;;;26.02;42.82;99531.84;6172193;23;20094;-90
2022/07/03 07:46:05;;;;;;;111.20;22.55;;;;;;;26.15;42.99;99529.34;6221502;23;20044;-88
2022/07/03 07:48:38;;;;;;;126.65;24.92;;;;;;;26.41;43.88;99553.13;6196680;23;20016;-89
2022/07/03 07:53:52;;;;;;;131.93;24.83;;;;;;;26.40;42.15;99537.53;6220176;23;20026;-89
2022/07/03 07:56:18;;;;;;;52.03;19.90;;;;;;;26.50;41.03;99542.28;6220311;23;20367;-90
2022/07/03 07:58:44;;;;;;;49.95;20.55;;;;;;;26.57;42.04;99541.41;6170586;23;20016;-90
2022/07/03 08:06:40;;;;;;;42.17;18.13;;;;;;;26.76;39.26;99551.22;6193832;23;20016;-89
2022/07/03 08:09:06;;;;;;;60.70;20.25;;;;;;;26.83;39.50;99554.75;6169360;23;20448;-89
2022/07/03 08:11:35;;;;;;;89.88;21.05;;;;;;;26.93;39.30;99556.63;6170142;23;20019;-90
2022/07/03 08:14:04;;;;;;;98.38;22.73;;;;;;;26.98;39.17;99552.56;6194256;23;20016;-89
2022/07/03 08:16:46;;;;;;;74.53;20.52;;;;;;;26.99;38.63;99559.78;6219702;23;20413;-91
2022/07/03 08:19:38;;;;;;;52.05;16.75;;;;;;;26.94;38.25;99563.03;6194842;23;20461;-91
2022/07/03 08:22:12;;;;;;;54.20;18.52;;;;;;;26.58;38.43;99517.75;6170111;23;20478;-90
2022/07/03 08:24:38;;;;;;;43.78;18.52;;;;;;;26.62;38.46;99498.88;6218784;23;20016;-90
2022/07/03 08:27:05;;;;;;;67.90;19.35;;;;;;;27.07;39.14;99549.25;6220861;23;20023;-89
2022/07/03 08:29:38;;;;;;;79.20;20.95;;;;;;;27.09;38.56;99549.66;6247821;23;20020;-91
2022/07/03 08:32:07;;;;;;;65.40;21.00;;;;;;;27.09;38.54;99532.81;6247145;23;20413;-90
2022/07/03 08:34:33;;;;;;;75.55;20.58;;;;;;;27.14;39.58;99535.97;6195408;23;20102;-91
2022/07/03 08:37:05;;;;;;;65.95;19.77;;;;;;;27.41;38.62;99552.84;6195114;23;20466;-92
2022/07/03 08:39:32;;;;;;;65.63;19.67;;;;;;;27.29;35.94;99552.63;6220502;23;20063;-89
2022/07/03 08:42:26;;;;;;;72.63;18.92;;;;;;;27.21;37.23;99548.31;6201012;23;20102;-93
2022/07/03 08:44:54;;;;;;;80.68;20.70;;;;;;;27.37;37.04;99559.72;6168805;23;20012;-90
2022/07/03 08:47:22;;;;;;;48.38;18.10;;;;;;;27.45;36.54;99564.06;6169080;23;20209;-93
2022/07/03 08:49:49;;;;;;;54.58;18.55;;;;;;;27.27;36.76;99535.41;6169096;23;20027;-88
2022/07/03 08:52:16;;;;;;;80.78;19.67;;;;;;;27.24;37.87;99525.81;6246036;23;20098;-91
2022/07/03 08:54:42;;;;;;;50.90;18.48;;;;;;;27.43;38.89;99538.41;6247034;23;20019;-89
2022/07/03 08:57:11;;;;;;;42.63;16.98;;;;;;;27.49;37.32;99542.31;6194317;23;20108;-91
2022/07/03 08:59:38;;;;;;;38.45;17.55;;;;;;;27.61;38.08;99543.75;6219142;23;20020;-91
2022/07/03 09:02:05;;;;;;;38.90;17.48;;;;;;;27.44;36.19;99497.06;6219007;23;20468;-91
2022/07/03 09:04:37;;;;;;;48.92;18.35;;;;;;;27.66;38.02;99512.38;6245429;23;20051;-88
2022/07/03 09:07:08;;;;;;;42.97;17.48;;;;;;;27.95;36.53;99538.06;6245204;23;20012;-90
2022/07/03 09:09:34;;;;;;;37.25;17.00;;;;;;;28.04;34.87;99541.09;6220168;23;20527;-88
2022/07/03 09:12:00;;;;;;;50.35;18.00;;;;;;;28.05;36.33;99530.69;6195210;23;20016;-88
2022/07/03 09:14:26;;;;;;;47.60;16.80;;;;;;;28.01;36.18;99522.31;6220198;23;20019;-91
2022/07/03 09:16:52;;;;;;;45.90;18.48;;;;;;;28.10;36.16;99542.22;6220337;23;20485;-93
2022/07/03 09:19:37;;;;;;;;;;;;;;;28.19;37.10;99540.88;6195459;23;20023;-92
2022/07/03 09:22:13;;;;;;;56.07;18.77;;;;;;;28.00;36.68;99519.91;6220536;23;19969;-88
2022/07/03 09:24:39;;;;;;;;;;;;;;;28.12;36.39;99546.63;6194620;23;20023;-91
2022/07/03 09:27:07;;;;;;;;;;;;;;;28.11;34.18;99543.00;6194166;23;19915;-88
2022/07/03 09:29:33;;;;;;;43.33;15.57;;;;;;;27.95;32.00;99518.41;6193010;23;19938;-90
2022/07/03 09:32:00;;;;;;;39.17;15.68;;;;;;;28.08;34.03;99527.03;6170504;23;20070;-89
2022/07/03 09:34:26;;;;;;;41.10;14.10;;;;;;;28.13;30.99;99532.13;6194639;23;20023;-88
2022/07/03 09:36:53;;;;;;;40.30;14.93;;;;;;;28.34;33.39;99528.97;6168869;23;20016;-88
2022/07/03 09:39:25;;;;;;;31.30;15.48;;;;;;;28.34;31.73;99548.66;6217113;23;20020;-89
2022/07/03 09:42:09;;;;;;;36.40;14.68;;;;;;;28.38;32.79;99542.97;6246208;23;20031;-91
2022/07/03 09:44:38;;;;;;;30.13;14.98;;;;;;;28.27;33.19;99529.06;6168715;23;20101;-90
2022/07/03 09:47:18;;;;;;;42.60;17.42;;;;;;;28.37;33.75;99527.28;6217764;23;20077;-88
2022/07/03 09:49:54;;;;;;;28.58;15.95;;;;;;;28.46;33.84;99533.19;6169486;23;20012;-88
2022/07/03 09:52:42;;;;;;;42.97;15.80;;;;;;;28.30;32.43;99525.41;6220379;23;20023;-89
2022/07/03 09:55:08;;;;;;;34.58;14.57;;;;;;;28.17;32.48;99506.78;6220037;23;20016;-92
2022/07/03 09:57:40;;;;;;;38.28;14.75;;;;;;;28.48;31.55;99532.78;6168581;23;20075;-88
2022/07/03 10:00:22;;;;;;;27.75;13.88;;;;;;;28.50;31.35;99536.72;6247090;23;20018;-92
2022/07/03 10:03:04;;;;;;;32.60;14.05;;;;;;;28.49;31.81;99535.16;6193970;23;20106;-89
2022/07/03 10:05:32;;;;;;;39.67;15.75;;;;;;;28.52;32.05;99527.88;6169878;23;20027;-90
2022/07/03 10:08:04;;;;;;;37.22;16.08;;;;;;;28.55;34.00;99510.94;6245772;23;20021;-90
2022/07/03 10:10:33;;;;;;;18.50;13.18;;;;;;;28.59;30.65;99505.25;6170260;23;20099;-93
2022/07/03 10:13:09;;;;;;;26.10;11.95;;;;;;;28.41;28.99;99477.47;6170147;23;20019;-91
2022/07/03 10:15:37;;;;;;;28.83;12.68;;;;;;;28.53;29.13;99501.34;6168664;23;20020;-92
2022/07/03 10:18:05;;;;;;;22.88;11.80;;;;;;;28.53;29.70;99490.88;6192540;23;20382;-89
2022/07/03 10:20:47;;;;;;;26.67;12.75;;;;;;;28.69;29.26;99526.75;6168714;23;20540;-88
2022/07/03 10:23:22;;;;;;;29.95;13.25;;;;;;;28.46;28.84;99495.84;6244668;23;20047;-89
2022/07/03 10:25:55;;;;;;;22.23;12.02;;;;;;;28.66;29.17;99519.16;6230764;23;20080;-92
2022/07/03 10:28:22;;;;;;;33.90;13.75;;;;;;;28.80;29.49;99521.69;6215561;23;20027;-91
2022/07/03 10:34:41;;;;;;;20.67;13.32;;;;;;;29.04;30.00;99501.97;6262378;22;20458;-95
2022/07/03 10:37:29;;;;;;;46.90;14.75;;;;;;;29.03;29.96;99489.88;6197603;22;20028;-91
2022/07/03 10:46:23;;;;;;;61.17;14.10;;;;;;;29.13;28.49;99490.09;6268715;22;20011;-95
2022/07/03 10:49:10;;;;;;;24.45;12.80;;;;;;;29.06;27.75;99488.22;6211830;22;20004;-95
2022/07/03 10:52:28;;;;;;;45.00;13.40;;;;;;;29.38;29.01;99517.72;6238690;22;20050;-94
2022/07/03 10:55:51;;;;;;;21.10;12.50;;;;;;;29.44;28.71;99513.97;6213351;22;20079;-95
2022/07/03 10:59:09;;;;;;;29.40;13.85;;;;;;;29.52;28.71;99513.78;6181310;23;20023;-92
2022/07/03 11:05:24;;;;;;;29.00;14.90;;;;;;;29.56;28.84;99501.19;6259908;22;20028;-96
2022/07/03 11:08:00;;;;;;;46.22;15.48;;;;;;;29.54;30.06;99485.94;6200428;23;20024;-93
2022/07/03 11:10:40;;;;;;;28.92;14.50;;;;;;;29.49;29.12;99464.75;6175297;23;20020;-93
2022/07/03 11:13:27;;;;;;;26.00;13.30;;;;;;;29.65;27.86;99469.63;6178041;23;20067;-93
2022/07/03 11:15:54;;;;;;;78.13;15.93;;;;;;;29.63;28.14;99491.81;6152991;23;20017;-93
2022/07/03 11:18:23;;;;;;;79.10;15.80;;;;;;;29.54;28.97;99498.03;6179642;22;20047;-93
2022/07/03 11:21:23;;;;;;;42.53;14.90;;;;;;;29.69;29.15;99490.84;6204934;23;20017;-91
2022/07/03 11:24:26;;;;;;;82.13;17.77;;;;;;;29.89;29.16;99487.94;6151620;23;20315;-91
2022/07/03 11:27:47;;;;;;;81.32;19.25;;;;;;;29.96;28.48;99487.75;6158255;23;20107;-90
2022/07/03 11:30:25;;;;;;;29.48;13.63;;;;;;;29.68;28.07;99500.53;6231106;23;20029;-93
2022/07/03 11:33:00;;;;;;;94.40;16.90;;;;;;;29.41;28.08;99464.13;6118259;23;20118;-95
2022/07/03 11:35:55;;;;;;;40.03;14.57;;;;;;;29.73;28.02;99500.03;6090844;23;20026;-93
2022/07/03 11:48:32;;;;;;;48.17;17.38;;;;;;;30.05;30.58;99432.81;6175973;23;20080;-93
2022/07/03 12:03:30;;;;;;;48.90;15.52;;;;;;;30.14;29.93;99438.59;6272263;22;20079;-94
2022/07/03 12:06:13;;;;;;;61.70;17.98;;;;;;;29.79;28.40;99412.13;6255166;22;20028;-93
2022/07/03 12:09:35;;;;;;;98.03;18.30;;;;;;;30.15;27.92;99463.53;6171801;22;20070;-93
2022/07/03 12:12:16;;;;;;;100.95;18.38;;;;;;;29.96;26.62;99422.16;6258504;22;20034;-95
2022/07/03 12:14:48;;;;;;;53.45;14.48;;;;;;;30.46;26.05;99477.22;6226526;22;20020;-88
2022/07/03 12:17:17;;;;;;;31.83;13.35;;;;;;;30.21;26.06;99440.47;6200452;22;20016;-89
2022/07/03 12:20:00;;;;;;;33.78;14.18;;;;;;;30.59;26.38;99471.63;6276798;22;20094;-92
2022/07/03 12:22:32;;;;;;;57.20;16.10;;;;;;;30.69;26.61;99475.41;6199907;22;20020;-91
2022/07/03 12:25:12;;;;;;;57.97;17.35;;;;;;;30.71;27.00;99445.50;6277749;22;20030;-93
2022/07/03 12:27:40;;;;;;;78.85;18.45;;;;;;;30.51;28.08;99468.25;6252036;22;20015;-90
2022/07/03 12:30:10;;;;;;;68.72;16.92;;;;;;;30.13;28.94;99429.34;6246512;22;20024;-91
2022/07/03 12:32:38;;;;;;;96.78;19.85;;;;;;;30.17;28.91;99451.81;6276704;22;20024;-90
2022/07/03 12:35:07;;;;;;;149.60;22.27;;;;;;;30.24;29.32;99474.22;6276038;22;20014;-90
2022/07/03 12:37:37;;;;;;;92.53;18.50;;;;;;;30.37;28.46;99452.50;6276626;22;20019;-91
2022/07/03 12:40:06;;;;;;;95.85;19.60;;;;;;;30.75;27.73;99479.25;6224979;22;20077;-91
2022/07/03 12:42:48;;;;;;;110.40;22.20;;;;;;;30.56;27.70;99449.97;6242774;22;20069;-90
2022/07/03 12:50:54;;;;;;;113.93;19.95;;;;;;;31.31;27.60;99459.06;6277038;22;20098;-89
2022/07/03 12:53:31;;;;;;;80.03;17.75;;;;;;;31.41;28.07;99471.31;6276710;22;20098;-91
2022/07/03 12:56:20;;;;;;;138.68;21.52;;;;;;;31.46;28.65;99460.25;6200436;22;20023;-88
2022/07/03 13:01:36;;;;;;;78.10;17.43;;;;;;;31.58;26.75;99462.25;6275640;22;20026;-88
2022/07/03 13:04:03;;;;;;;62.85;16.08;;;;;;;31.41;26.29;99445.88;6198147;22;20020;-90
2022/07/03 13:06:29;;;;;;;70.25;15.70;;;;;;;31.22;27.00;99461.75;6275772;22;20098;-88
2022/07/03 13:08:58;;;;;;;;;;;;;;;31.13;27.57;99466.06;6223765;22;20065;-87
2022/07/03 13:11:32;;;;;;;45.28;15.90;;;;;;;31.03;26.42;99458.72;6223369;22;19915;-92
2022/07/03 13:17:53;;;;;;;30.83;13.95;;;;;;;31.18;25.59;99461.88;6250018;22;20077;-89
2022/07/03 13:20:47;;;;;;;62.53;16.17;;;;;;;31.36;26.57;99458.53;6276155;22;20096;-88
2022/07/03 13:23:15;;;;;;;55.03;17.58;;;;;;;31.17;26.27;99442.56;6198834;22;20012;-90
2022/07/03 13:25:44;;;;;;;46.00;15.63;;;;;;;31.32;26.21;99450.16;6224179;22;20012;-88
2022/07/03 13:28:12;;;;;;;59.45;17.02;;;;;;;31.30;26.42;99449.81;6250560;22;20019;-90
2022/07/03 13:30:41;;;;;;;83.72;18.42;;;;;;;31.29;28.16;99451.06;6276915;22;20086;-89
2022/07/03 13:33:10;;;;;;;61.70;16.50;;;;;;;30.91;26.15;99416.34;6225019;22;20019;-89
2022/07/03 13:35:37;;;;;;;64.60;15.75;;;;;;;31.16;26.69;99452.25;6249616;22;20356;-89
2022/07/03 13:38:04;;;;;;;33.83;13.65;;;;;;;30.89;25.29;99428.88;6224345;22;20018;-88
2022/07/03 13:40:30;;;;;;;36.53;13.20;;;;;;;30.86;25.72;99443.88;6224325;22;20022;-89
2022/07/03 13:42:58;;;;;;;52.22;14.73;;;;;;;30.96;25.53;99436.34;6198605;22;20026;-88
2022/07/03 13:45:24;;;;;;;60.65;16.42;;;;;;;31.03;26.75;99427.66;6223140;22;20457;-88
2022/07/03 13:47:50;;;;;;;;;;;;;;;31.18;26.26;99444.94;6223481;22;20484;-90
2022/07/03 13:50:17;;;;;;;80.68;17.25;;;;;;;30.94;27.05;99401.31;6248514;22;19919;-88
2022/07/03 13:52:43;;;;;;;54.33;14.80;;;;;;;30.94;26.08;99409.78;6199081;22;20020;-89
2022/07/03 13:55:09;;;;;;;;;;;;;;;31.28;25.17;99443.81;6224910;22;20019;-87
2022/07/03 13:57:37;;;;;;;24.38;12.10;;;;;;;31.20;24.40;99414.22;6224138;22;19925;-88
2022/07/03 14:00:03;;;;;;;;;;;;;;;31.40;24.46;99438.66;6224192;22;20039;-90
2022/07/03 14:02:35;;;;;;;47.80;14.65;;;;;;;31.19;25.45;99392.06;6250336;22;19914;-88
2022/07/03 14:05:01;;;;;;;39.53;13.82;;;;;;;31.35;25.34;99391.97;6250459;22;20022;-89
2022/07/03 14:07:29;;;;;;;63.10;16.67;;;;;;;31.39;26.58;99389.84;6225491;22;20023;-88
2022/07/03 14:09:55;;;;;;;58.28;17.85;;;;;;;31.69;26.35;99430.00;6202311;22;20024;-89
2022/07/03 14:12:21;;;;;;;;;;;;;;;31.70;23.96;99437.28;6227114;22;20019;-90
2022/07/03 14:14:47;;;;;;;43.63;13.32;;;;;;;31.73;24.01;99413.75;6252076;22;20413;-89
2022/07/03 14:19:42;;;;;;;33.40;12.30;;;;;;;31.82;24.40;99413.81;6278789;22;20039;-88
2022/07/03 14:22:08;;;;;;;;;;;;;;;32.05;24.56;99433.25;6252509;22;20024;-88
2022/07/03 14:24:34;;;;;;;37.10;11.98;;;;;;;31.71;24.01;99387.97;6226126;22;20446;-89
2022/07/03 14:32:32;;;;;;;110.55;16.13;;;;;;;31.74;22.06;99412.50;6226448;22;20039;-89
2022/07/03 14:35:02;;;;;;;70.65;14.45;;;;;;;31.86;23.26;99423.00;6277252;22;20331;-88
2022/07/03 14:37:30;;;;;;;22.88;11.55;;;;;;;31.61;22.19;99431.50;6276439;22;20479;-89
2022/07/03 14:39:58;;;;;;;41.15;12.13;;;;;;;31.71;22.96;99421.88;6224343;22;20016;-89
2022/07/03 14:42:24;;;;;;;49.33;12.40;;;;;;;31.88;22.61;99400.72;6199759;22;20062;-89
2022/07/03 14:44:51;;;;;;;29.55;11.30;;;;;;;31.97;23.17;99425.47;6250044;22;20031;-90
2022/07/03 14:47:18;;;;;;;;;;;;;;;32.05;23.98;99421.13;6251240;22;20354;-91
2022/07/03 14:50:09;;;;;;;74.15;15.20;;;;;;;31.85;23.67;99429.88;6266003;22;19994;-90
2022/07/03 14:52:43;;;;;;;;;;;;;;;31.68;24.12;99431.25;6267044;22;20026;-95
2022/07/03 14:56:09;;;;;;;49.20;13.55;;;;;;;31.83;23.98;99433.16;6203943;23;19924;-92
2022/07/03 15:03:33;;;;;;;117.18;18.27;;;;;;;31.56;23.88;99394.09;6261511;23;20112;-91
2022/07/03 15:06:54;;;;;;;116.95;19.30;;;;;;;31.98;24.19;99433.47;6207848;22;20027;-91
2022/07/03 15:12:50;;;;;;;148.80;22.60;;;;;;;31.79;24.29;99418.38;6239552;22;20083;-91
2022/07/03 15:19:09;;;;;;;91.10;15.45;;;;;;;31.75;23.53;99394.28;6255425;23;20004;-95
2022/07/03 15:25:34;;;;;;;88.60;14.85;;;;;;;31.75;22.39;99426.16;6253740;23;20028;-94
2022/07/03 15:28:26;;;;;;;;;;;;;;;31.69;22.56;99424.34;6143512;23;20022;-92
2022/07/03 15:31:37;;;;;;;52.92;13.18;;;;;;;31.46;23.21;99429.16;6235991;22;20413;-94
2022/07/03 15:34:06;;;;;;;54.47;14.45;;;;;;;31.36;23.24;99416.16;6267525;22;20019;-91
2022/07/03 15:36:57;;;;;;;73.82;14.18;;;;;;;31.31;23.04;99396.91;6218426;22;20452;-91
2022/07/03 15:39:38;;;;;;;113.97;17.77;;;;;;;31.32;23.28;99388.00;6292892;22;20067;-88
2022/07/03 15:42:27;;;;;;;33.35;11.32;;;;;;;31.47;23.22;99427.13;6214047;22;20042;-89
2022/07/03 15:45:27;;;;;;;62.67;13.18;;;;;;;31.44;24.58;99428.03;6294758;22;20023;-90
2022/07/03 15:51:43;;;;;;;54.55;13.38;;;;;;;31.15;23.69;99425.28;6228199;22;20071;-92
2022/07/03 15:54:10;;;;;;;;;;;;;;;31.15;23.86;99426.06;6280044;22;20015;-90
2022/07/03 15:56:42;;;;;;;65.90;14.00;;;;;;;31.09;24.05;99414.56;6201465;22;19945;-91
2022/07/03 15:59:22;;;;;;;98.03;21.00;;;;;;;30.98;24.14;99402.00;6225762;22;20094;-95
2022/07/03 16:02:19;;;;;;;64.20;12.27;;;;;;;30.75;24.46;99386.13;6256312;22;20069;-94
2022/07/03 16:05:23;;;;;;;67.95;15.07;;;;;;;30.98;24.32;99427.41;6238801;22;20030;-90
2022/07/03 16:07:54;;;;;;;54.70;12.30;;;;;;;30.74;25.21;99404.31;6237919;22;20035;-91
2022/07/03 16:10:55;;;;;;;42.10;11.63;;;;;;;30.70;25.52;99427.00;6167133;23;20099;-91
2022/07/03 16:13:37;;;;;;;30.60;11.82;;;;;;;30.53;25.25;99426.28;6096284;23;20479;-93
2022/07/03 16:16:06;;;;;;;49.63;14.15;;;;;;;30.21;25.52;99404.59;6083203;23;20001;-91
2022/07/03 16:18:46;;;;;;;37.47;11.63;;;;;;;29.99;25.26;99390.25;6087360;23;20037;-93
2022/07/03 16:21:14;;;;;;;54.08;11.30;;;;;;;29.76;25.63;99382.03;6066031;23;20046;-95
2022/07/03 16:24:03;;;;;;;47.13;11.00;;;;;;;29.96;25.98;99433.41;6109587;22;20047;-91
2022/07/03 16:26:31;;;;;;;53.97;12.05;;;;;;;29.23;25.82;99351.91;6268250;22;20015;-93
2022/07/03 16:28:57;;;;;;;89.30;18.48;;;;;;;29.41;26.05;99407.03;6232119;23;20397;-93
2022/07/03 16:31:39;;;;;;;83.88;16.42;;;;;;;29.21;26.55;99399.44;6179947;23;20023;-95
2022/07/03 16:34:21;;;;;;;90.47;14.10;;;;;;;28.76;26.38;99360.59;6179723;23;20465;-93
2022/07/03 16:37:06;;;;;;;34.05;9.23;;;;;;;28.75;25.30;99384.34;6177648;23;20020;-96
2022/07/03 16:39:38;;;;;;;41.60;11.15;;;;;;;28.52;25.80;99359.13;6220792;23;20474;-94
2022/07/03 16:42:06;;;;;;;44.92;11.63;;;;;;;28.76;26.19;99414.06;6217773;23;20480;-95
2022/07/03 16:44:39;;;;;;;40.47;11.40;;;;;;;28.36;26.08;99361.84;6173887;23;20048;-96
2022/07/03 16:47:06;;;;;;;72.00;12.55;;;;;;;28.28;26.41;99355.59;6171562;23;20027;-94
2022/07/03 16:49:37;;;;;;;30.58;9.55;;;;;;;28.46;25.70;99403.03;6172611;23;20024;-94
2022/07/03 16:52:09;;;;;;;33.47;9.15;;;;;;;28.32;25.72;99406.91;6199781;23;20027;-94
2022/07/03 16:55:03;;;;;;;16.65;8.20;;;;;;;28.44;25.67;99436.41;6178160;23;20016;-94
2022/07/03 16:57:43;;;;;;;;;;;;;;;;;;;;;
2022/07/03 17:00:23;;;;;;;20.85;7.25;;;;;;;28.08;24.09;99401.34;6101306;23;20113;-94
2022/07/03 17:02:51;;;;;;;15.93;6.65;;;;;;;28.12;24.07;99411.72;6075361;23;20023;-95
2022/07/03 17:05:22;;;;;;;23.63;6.50;;;;;;;27.78;23.67;99373.38;6075868;23;20014;-95
2022/07/03 17:07:52;;;;;;;15.88;6.82;;;;;;;27.90;24.08;99397.25;6052124;23;20014;-95
2022/07/03 17:10:21;;;;;;;29.75;8.25;;;;;;;27.93;24.44;99413.25;6053710;23;20025;-95
2022/07/03 17:12:55;;;;;;;39.75;7.60;;;;;;;27.87;24.40;99408.13;6057819;23;20022;-94
2022/07/03 17:15:25;;;;;;;21.55;7.85;;;;;;;27.56;24.96;99361.72;6078216;23;20091;-95
2022/07/03 17:18:43;;;;;;;;;;;;;;;;;;;;;
2022/07/03 17:21:44;;;;;;;16.35;6.95;;;;;;;27.86;24.85;99447.91;6069040;23;20022;-93
2022/07/03 17:24:39;;;;;;;21.70;6.60;;;;;;;27.62;24.01;99422.56;6078153;23;20022;-96
2022/07/03 17:27:34;;;;;;;27.70;6.28;;;;;;;27.78;24.09;99452.03;6184614;22;20023;-94
2022/07/03 17:30:09;;;;;;;20.90;6.88;;;;;;;27.43;24.24;99403.63;6204478;22;20098;-93
2022/07/03 17:52:58;;;;;;;51.05;8.50;;;;;;;27.26;25.12;99467.25;6250653;22;20390;-93
2022/07/03 17:56:05;;;;;;;28.42;7.95;;;;;;;26.69;25.29;99387.44;6218922;23;20028;-92
2022/07/03 17:58:31;;;;;;;20.65;7.75;;;;;;;26.61;25.29;99393.53;6220575;23;20024;-96
2022/07/03 18:00:58;;;;;;;33.28;8.18;;;;;;;26.78;26.15;99434.59;6195944;23;20115;-96
2022/07/03 18:03:38;;;;;;;;;;;;;;;;;;;;;
2022/07/03 18:06:47;;;;;;;103.07;15.15;;;;;;;26.29;28.76;99405.09;6247740;23;20047;-94
2022/07/03 18:09:27;;;;;;;136.23;19.13;;;;;;;26.08;29.45;99411.75;6173266;23;20016;-96
2022/07/03 18:12:07;;;;;;;65.90;14.10;;;;;;;26.34;30.17;99475.50;6175238;22;20047;-95